createdAt,value
2023-01-13T00:00:13.845Z,47.86
2023-01-13T00:01:13.783Z,64.30
2023-01-13T00:02:13.809Z,46.00
2023-01-13T00:03:13.751Z,44.50
2023-01-13T00:04:13.759Z,46.28
2023-01-13T00:05:13.738Z,51.34
2023-01-13T00:06:13.760Z,62.05
2023-01-13T00:07:13.719Z,54.30
2023-01-13T00:08:13.721Z,49.49
2023-01-13T00:09:13.714Z,51.43
2023-01-13T00:10:13.687Z,51.22
2023-01-13T00:11:13.673Z,71.07
2023-01-13T00:12:13.665Z,46.89
2023-01-13T00:13:13.690Z,47.15
2023-01-13T00:14:13.675Z,48.53
2023-01-13T00:15:13.666Z,55.04
2023-01-13T00:16:13.638Z,61.33
2023-01-13T00:17:13.621Z,53.88
2023-01-13T00:18:13.615Z,52.39
2023-01-13T00:19:13.590Z,45.21
2023-01-13T00:20:13.616Z,47.13
2023-01-13T00:21:13.601Z,53.90
2023-01-13T00:22:13.565Z,62.45
2023-01-13T00:23:13.570Z,46.52
2023-01-13T00:24:13.559Z,48.75
2023-01-13T00:25:13.570Z,48.75
2023-01-13T00:26:13.523Z,48.79
2023-01-13T00:27:14.556Z,50.82
2023-01-13T00:28:13.523Z,51.67
2023-01-13T00:29:13.499Z,59.49
2023-01-13T00:30:13.527Z,45.86
2023-01-13T00:31:13.582Z,46.64
2023-01-13T00:32:13.468Z,48.73
2023-01-13T00:33:13.459Z,49.08
2023-01-13T00:34:13.487Z,50.31
2023-01-13T00:35:14.454Z,61.84
2023-01-13T00:36:13.444Z,53.45
2023-01-13T00:37:13.419Z,51.52
2023-01-13T00:38:14.425Z,49.81
2023-01-13T00:39:13.402Z,47.88
2023-01-13T00:40:13.393Z,51.93
2023-01-13T00:41:13.387Z,45.56
2023-01-13T00:42:13.369Z,48.09
2023-01-13T00:43:13.382Z,44.13
2023-01-13T00:44:13.349Z,48.38
2023-01-13T00:45:13.364Z,50.69
2023-01-13T00:46:13.409Z,56.08
2023-01-13T00:47:13.357Z,49.95
2023-01-13T00:48:13.327Z,43.98
2023-01-13T00:49:13.305Z,61.12
2023-01-13T00:50:13.318Z,49.15
2023-01-13T00:51:13.333Z,47.32
2023-01-13T00:52:13.279Z,61.32
2023-01-13T00:53:13.259Z,64.43
2023-01-13T00:54:13.275Z,51.23
2023-01-13T00:55:13.248Z,52.57
2023-01-13T00:56:13.255Z,53.96
2023-01-13T00:57:13.225Z,45.30
2023-01-13T00:58:13.219Z,62.47
2023-01-13T00:59:13.197Z,55.78
2023-01-13T01:00:13.210Z,49.74
2023-01-13T01:01:13.346Z,45.20
2023-01-13T01:02:13.258Z,56.79
2023-01-13T01:03:13.159Z,48.20
2023-01-13T01:04:14.157Z,44.64
2023-01-13T01:05:13.179Z,45.49
2023-01-13T01:06:13.147Z,47.32
2023-01-13T01:07:13.134Z,51.19
2023-01-13T01:08:13.152Z,54.70
2023-01-13T01:09:13.109Z,47.12
2023-01-13T01:10:13.102Z,45.66
2023-01-13T01:11:13.089Z,43.96
2023-01-13T01:12:13.095Z,47.00
2023-01-13T01:13:13.082Z,43.83
2023-01-13T01:14:13.073Z,48.40
2023-01-13T01:15:13.068Z,48.54
2023-01-13T01:16:13.243Z,43.69
2023-01-13T01:17:13.050Z,48.26
2023-01-13T01:18:13.035Z,47.90
2023-01-13T01:19:13.036Z,47.57
2023-01-13T01:20:13.000Z,45.58
2023-01-13T01:21:12.993Z,60.12
2023-01-13T01:22:13.001Z,55.21
2023-01-13T01:23:13.002Z,50.39
2023-01-13T01:24:12.988Z,48.64
2023-01-13T01:25:12.951Z,48.08
2023-01-13T01:26:12.944Z,52.97
2023-01-13T01:27:12.965Z,47.58
2023-01-13T01:28:12.936Z,44.01
2023-01-13T01:29:13.918Z,53.01
2023-01-13T01:30:12.913Z,44.61
2023-01-13T01:31:12.961Z,43.31
2023-01-13T01:32:12.901Z,46.32
2023-01-13T01:33:12.877Z,50.93
2023-01-13T01:34:12.898Z,46.21
2023-01-13T01:35:12.889Z,51.38
2023-01-13T01:36:12.864Z,59.76
2023-01-13T01:37:44.755Z,52.82
2023-01-13T01:38:12.848Z,44.93
2023-01-13T01:39:12.859Z,47.25
2023-01-13T01:40:12.866Z,49.89
2023-01-13T01:41:12.808Z,50.20
2023-01-13T01:42:12.804Z,53.05
2023-01-13T01:43:12.800Z,45.59
2023-01-13T01:44:12.813Z,58.49
2023-01-13T01:45:12.772Z,48.96
2023-01-13T01:46:12.772Z,51.56
2023-01-13T01:47:12.784Z,58.26
2023-01-13T01:48:12.743Z,45.00
2023-01-13T01:49:12.764Z,48.37
2023-01-13T01:50:12.714Z,63.41
2023-01-13T01:51:12.735Z,49.27
2023-01-13T01:52:12.718Z,52.15
2023-01-13T01:53:12.694Z,46.85
2023-01-13T01:54:12.739Z,53.52
2023-01-13T01:55:12.686Z,56.91
2023-01-13T01:56:12.675Z,49.65
2023-01-13T01:57:12.669Z,44.62
2023-01-13T01:58:12.665Z,46.00
2023-01-13T01:59:12.659Z,48.47
2023-01-13T02:00:12.632Z,54.94
2023-01-13T02:01:12.716Z,62.00
2023-01-13T02:02:12.794Z,53.13
2023-01-13T02:03:12.594Z,52.68
2023-01-13T02:04:12.616Z,46.56
2023-01-13T02:05:12.573Z,44.98
2023-01-13T02:06:12.565Z,52.34
2023-01-13T02:07:12.566Z,51.20
2023-01-13T02:08:12.594Z,45.71
2023-01-13T02:09:12.541Z,52.83
2023-01-13T02:10:12.536Z,45.74
2023-01-13T02:11:12.565Z,60.85
2023-01-13T02:12:12.514Z,54.15
2023-01-13T02:13:12.516Z,64.10
2023-01-13T02:14:12.497Z,49.96
2023-01-13T02:15:12.481Z,48.44
2023-01-13T02:16:12.567Z,44.42
2023-01-13T02:17:12.489Z,52.34
2023-01-13T02:18:12.462Z,53.37
2023-01-13T02:19:12.460Z,55.12
2023-01-13T02:20:12.462Z,45.73
2023-01-13T02:21:12.468Z,52.17
2023-01-13T02:22:12.427Z,48.04
2023-01-13T02:23:12.395Z,47.94
2023-01-13T02:24:13.392Z,50.50
2023-01-13T02:25:12.394Z,63.47
2023-01-13T02:26:12.395Z,49.72
2023-01-13T02:27:12.413Z,49.84
2023-01-13T02:28:12.363Z,46.50
2023-01-13T02:29:12.359Z,46.12
2023-01-13T02:30:12.351Z,46.86
2023-01-13T02:31:12.448Z,48.48
2023-01-13T02:32:12.357Z,49.40
2023-01-13T02:33:12.317Z,48.82
2023-01-13T02:34:12.303Z,52.97
2023-01-13T02:35:12.319Z,56.68
2023-01-13T02:36:12.271Z,66.51
2023-01-13T02:37:12.262Z,47.83
2023-01-13T02:38:12.253Z,48.25
2023-01-13T02:39:12.286Z,60.18
2023-01-13T02:40:12.236Z,56.07
2023-01-13T02:41:12.221Z,44.61
2023-01-13T02:42:12.219Z,46.03
2023-01-13T02:43:12.232Z,44.11
2023-01-13T02:44:12.197Z,47.80
2023-01-13T02:45:12.184Z,54.25
2023-01-13T02:46:12.185Z,60.45
2023-01-13T02:47:12.179Z,48.33
2023-01-13T02:48:12.190Z,52.54
2023-01-13T02:49:12.144Z,54.99
2023-01-13T02:50:12.130Z,51.73
2023-01-13T02:51:12.130Z,45.00
2023-01-13T02:52:12.177Z,48.55
2023-01-13T02:53:12.102Z,47.41
2023-01-13T02:54:12.089Z,48.69
2023-01-13T02:55:12.089Z,45.19
2023-01-13T02:56:12.082Z,45.10
2023-01-13T02:57:12.089Z,51.13
2023-01-13T02:58:12.046Z,61.49
2023-01-13T02:59:12.058Z,48.49
2023-01-13T03:00:12.044Z,44.49
2023-01-13T03:01:12.141Z,44.16
2023-01-13T03:02:12.156Z,51.98
2023-01-13T03:03:12.020Z,54.46
2023-01-13T03:04:12.017Z,49.98
2023-01-13T03:05:12.007Z,50.42
2023-01-13T03:06:12.006Z,62.35
2023-01-13T03:07:11.979Z,49.31
2023-01-13T03:08:11.978Z,53.34
2023-01-13T03:09:11.965Z,52.06
2023-01-13T03:10:11.946Z,51.29
2023-01-13T03:11:11.990Z,57.34
2023-01-13T03:12:11.938Z,59.76
2023-01-13T03:13:11.924Z,51.61
2023-01-13T03:14:11.904Z,46.86
2023-01-13T03:15:11.907Z,52.62
2023-01-13T03:16:11.910Z,52.11
2023-01-13T03:17:11.907Z,58.97
2023-01-13T03:18:11.876Z,49.06
2023-01-13T03:19:11.859Z,49.95
2023-01-13T03:20:11.862Z,50.80
2023-01-13T03:21:11.851Z,53.04
2023-01-13T03:22:11.870Z,53.53
2023-01-13T03:23:11.830Z,48.86
2023-01-13T03:24:11.847Z,48.92
2023-01-13T03:25:11.823Z,51.15
2023-01-13T03:26:11.798Z,56.00
2023-01-13T03:27:11.837Z,61.13
2023-01-13T03:28:11.782Z,47.99
2023-01-13T03:29:11.771Z,46.67
2023-01-13T03:30:11.779Z,49.50
2023-01-13T03:31:11.769Z,50.65
2023-01-13T03:32:11.759Z,50.08
2023-01-13T03:33:11.722Z,52.93
2023-01-13T03:34:11.751Z,49.82
2023-01-13T03:35:11.708Z,48.82
2023-01-13T03:36:11.710Z,50.75
2023-01-13T03:37:11.695Z,53.81
2023-01-13T03:38:11.681Z,48.61
2023-01-13T03:39:11.667Z,51.63
2023-01-13T03:40:11.662Z,54.19
2023-01-13T03:41:11.686Z,62.69
2023-01-13T03:42:11.639Z,55.20
2023-01-13T03:43:11.644Z,51.02
2023-01-13T03:44:12.609Z,54.69
2023-01-13T03:45:11.615Z,46.38
2023-01-13T03:46:11.634Z,48.73
2023-01-13T03:47:11.679Z,48.77
2023-01-13T03:48:11.611Z,53.51
2023-01-13T03:49:11.606Z,50.94
2023-01-13T03:50:11.592Z,53.40
2023-01-13T03:51:11.565Z,62.88
2023-01-13T03:52:11.604Z,55.47
2023-01-13T03:53:11.613Z,55.45
2023-01-13T03:54:11.595Z,55.39
2023-01-13T03:55:11.584Z,50.15
2023-01-13T03:56:11.583Z,52.04
2023-01-13T03:57:11.540Z,64.74
2023-01-13T03:58:11.541Z,61.84
2023-01-13T03:59:11.542Z,51.65
2023-01-13T04:00:11.556Z,52.96
2023-01-13T04:01:11.651Z,52.32
2023-01-13T04:02:11.634Z,53.50
2023-01-13T04:03:11.527Z,52.50
2023-01-13T04:04:11.487Z,53.15
2023-01-13T04:05:11.431Z,53.60
2023-01-13T04:06:11.491Z,54.65
2023-01-13T04:07:11.434Z,55.66
2023-01-13T04:08:11.411Z,53.77
2023-01-13T04:09:11.421Z,56.17
2023-01-13T04:10:11.399Z,53.12
2023-01-13T04:11:11.439Z,53.23
2023-01-13T04:12:11.400Z,63.25
2023-01-13T04:13:11.365Z,63.34
2023-01-13T04:14:11.351Z,54.50
2023-01-13T04:15:11.397Z,54.21
2023-01-13T04:16:11.401Z,53.22
2023-01-13T04:17:11.301Z,62.71
2023-01-13T04:18:11.338Z,58.89
2023-01-13T04:19:11.326Z,53.52
2023-01-13T04:20:11.368Z,53.47
2023-01-13T04:21:11.284Z,61.05
2023-01-13T04:22:11.260Z,57.61
2023-01-13T04:23:11.304Z,56.05
2023-01-13T04:24:11.275Z,52.74
2023-01-13T04:25:11.276Z,54.44
2023-01-13T04:26:11.309Z,56.93
2023-01-13T04:27:11.250Z,64.74
2023-01-13T04:28:11.193Z,60.61
2023-01-13T04:29:11.221Z,64.70
2023-01-13T04:30:11.199Z,60.30
2023-01-13T04:31:11.374Z,55.46
2023-01-13T04:32:11.168Z,58.58
2023-01-13T04:33:11.199Z,55.84
2023-01-13T04:34:11.137Z,57.22
2023-01-13T04:35:11.161Z,55.88
2023-01-13T04:36:11.176Z,58.13
2023-01-13T04:37:11.144Z,55.79
2023-01-13T04:38:11.153Z,58.71
2023-01-13T04:39:11.127Z,57.32
2023-01-13T04:40:11.121Z,64.88
2023-01-13T04:41:11.121Z,62.39
2023-01-13T04:42:11.086Z,56.93
2023-01-13T04:43:11.068Z,56.77
2023-01-13T04:44:11.040Z,59.59
2023-01-13T04:45:11.090Z,64.33
2023-01-13T04:46:11.053Z,57.34
2023-01-13T04:47:11.058Z,56.92
2023-01-13T04:48:11.054Z,55.99
2023-01-13T04:49:11.012Z,55.34
2023-01-13T04:50:11.023Z,53.90
2023-01-13T04:51:10.996Z,55.17
2023-01-13T04:52:10.963Z,56.68
2023-01-13T04:53:10.985Z,57.68
2023-01-13T04:54:10.954Z,56.06
2023-01-13T04:55:10.942Z,55.24
2023-01-13T04:56:10.954Z,58.01
2023-01-13T04:57:10.916Z,56.43
2023-01-13T04:58:10.943Z,58.00
2023-01-13T04:59:10.923Z,58.48
2023-01-13T05:00:10.893Z,58.87
2023-01-13T05:01:11.014Z,56.77
2023-01-13T05:02:10.905Z,55.40
2023-01-13T05:03:10.888Z,59.45
2023-01-13T05:04:10.852Z,59.83
2023-01-13T05:05:10.914Z,57.39
2023-01-13T05:06:10.854Z,56.65
2023-01-13T05:07:10.823Z,56.35
2023-01-13T05:08:10.838Z,59.09
2023-01-13T05:09:10.816Z,55.85
2023-01-13T05:10:10.813Z,60.53
2023-01-13T05:11:11.780Z,63.98
2023-01-13T05:12:10.795Z,57.76
2023-01-13T05:13:10.756Z,58.36
2023-01-13T05:14:10.758Z,60.67
2023-01-13T05:15:11.763Z,57.39
2023-01-13T05:16:11.499Z,56.87
2023-01-13T05:17:11.731Z,57.37
2023-01-13T05:18:10.739Z,59.44
2023-01-13T05:19:10.731Z,57.72
2023-01-13T05:20:10.664Z,56.99
2023-01-13T05:21:11.688Z,57.10
2023-01-13T05:22:10.650Z,67.54
2023-01-13T05:23:10.706Z,61.77
2023-01-13T05:24:10.696Z,56.86
2023-01-13T05:25:10.665Z,66.85
2023-01-13T05:26:10.650Z,56.50
2023-01-13T05:27:10.624Z,58.11
2023-01-13T05:28:10.639Z,57.33
2023-01-13T05:29:10.644Z,57.74
2023-01-13T05:30:10.601Z,59.96
2023-01-13T05:31:10.645Z,57.32
2023-01-13T05:32:10.609Z,57.73
2023-01-13T05:33:10.641Z,57.58
2023-01-13T05:34:10.586Z,57.28
2023-01-13T05:35:10.585Z,57.66
2023-01-13T05:36:10.543Z,58.01
2023-01-13T05:37:10.574Z,59.15
2023-01-13T05:38:10.533Z,58.64
2023-01-13T05:39:10.541Z,59.28
2023-01-13T05:40:10.507Z,57.59
2023-01-13T05:41:10.487Z,65.74
2023-01-13T05:42:10.535Z,57.87
2023-01-13T05:43:10.526Z,58.70
2023-01-13T05:44:10.452Z,58.59
2023-01-13T05:45:10.461Z,60.99
2023-01-13T05:46:10.497Z,59.22
2023-01-13T05:47:10.433Z,60.30
2023-01-13T05:48:10.487Z,58.62
2023-01-13T05:49:10.428Z,67.12
2023-01-13T05:50:10.429Z,60.71
2023-01-13T05:51:10.393Z,60.79
2023-01-13T05:52:10.411Z,60.43
2023-01-13T05:53:10.403Z,59.69
2023-01-13T05:54:10.420Z,60.38
2023-01-13T05:55:10.414Z,59.22
2023-01-13T05:56:10.407Z,59.27
2023-01-13T05:57:10.348Z,58.80
2023-01-13T05:58:10.352Z,63.12
2023-01-13T05:59:10.332Z,67.34
2023-01-13T06:00:10.366Z,60.15
2023-01-13T06:01:10.343Z,62.75
2023-01-13T06:02:10.274Z,60.30
2023-01-13T06:03:10.313Z,59.39
2023-01-13T06:04:10.329Z,60.83
2023-01-13T06:05:10.289Z,63.77
2023-01-13T06:06:10.288Z,61.86
2023-01-13T06:07:10.269Z,58.58
2023-01-13T06:08:10.259Z,60.81
2023-01-13T06:09:10.220Z,59.32
2023-01-13T06:10:10.230Z,62.69
2023-01-13T06:11:10.240Z,61.89
2023-01-13T06:12:10.187Z,58.62
2023-01-13T06:13:10.173Z,57.50
2023-01-13T06:14:10.200Z,58.25
2023-01-13T06:15:10.211Z,59.73
2023-01-13T06:16:10.225Z,62.89
2023-01-13T06:17:10.122Z,59.07
2023-01-13T06:18:10.115Z,60.70
2023-01-13T06:19:10.130Z,58.77
2023-01-13T06:20:10.179Z,60.07
2023-01-13T06:21:10.131Z,63.42
2023-01-13T06:22:10.094Z,62.88
2023-01-13T06:23:10.115Z,60.26
2023-01-13T06:24:10.079Z,60.88
2023-01-13T06:25:10.056Z,60.93
2023-01-13T06:26:10.135Z,60.06
2023-01-13T06:27:10.075Z,63.64
2023-01-13T06:28:10.041Z,60.04
2023-01-13T06:29:10.085Z,61.88
2023-01-13T06:30:10.049Z,61.14
2023-01-13T06:31:10.090Z,60.29
2023-01-13T06:32:10.001Z,61.54
2023-01-13T06:33:09.988Z,60.36
2023-01-13T06:34:09.943Z,61.41
2023-01-13T06:35:09.989Z,62.14
2023-01-13T06:36:09.952Z,61.27
2023-01-13T06:37:09.933Z,60.37
2023-01-13T06:38:09.888Z,60.66
2023-01-13T06:39:09.955Z,61.72
2023-01-13T06:40:09.885Z,62.34
2023-01-13T06:41:09.880Z,60.81
2023-01-13T06:42:09.884Z,64.99
2023-01-13T06:43:09.856Z,65.44
2023-01-13T06:44:19.421Z,60.16
2023-01-13T06:45:10.855Z,62.30
2023-01-13T06:46:09.831Z,66.77
2023-01-13T06:47:09.813Z,66.07
2023-01-13T06:48:09.795Z,60.09
2023-01-13T06:49:10.794Z,60.12
2023-01-13T06:50:10.819Z,61.05
2023-01-13T06:51:09.774Z,59.58
2023-01-13T06:52:09.764Z,65.98
2023-01-13T06:53:09.775Z,60.67
2023-01-13T06:54:09.749Z,60.27
2023-01-13T06:55:09.801Z,66.26
2023-01-13T06:56:09.723Z,67.14
2023-01-13T06:57:09.719Z,58.75
2023-01-13T06:58:09.728Z,58.67
2023-01-13T06:59:09.706Z,57.87
2023-01-13T07:00:09.706Z,62.67
2023-01-13T07:01:09.863Z,61.08
2023-01-13T07:02:09.751Z,60.25
2023-01-13T07:03:09.669Z,58.68
2023-01-13T07:04:09.648Z,63.39
2023-01-13T07:05:09.648Z,68.43
2023-01-13T07:06:09.633Z,60.59
2023-01-13T07:07:09.642Z,61.40
2023-01-13T07:08:09.633Z,69.04
2023-01-13T07:09:09.587Z,67.34
2023-01-13T07:10:09.582Z,58.90
2023-01-13T07:11:09.579Z,58.50
2023-01-13T07:12:09.567Z,57.75
2023-01-13T07:13:09.594Z,59.11
2023-01-13T07:14:09.560Z,61.43
2023-01-13T07:15:09.542Z,57.51
2023-01-13T07:16:09.583Z,59.09
2023-01-13T07:17:09.521Z,60.07
2023-01-13T07:18:10.529Z,59.64
2023-01-13T07:19:09.538Z,63.86
2023-01-13T07:20:09.522Z,60.76
2023-01-13T07:21:09.522Z,67.09
2023-01-13T07:22:09.488Z,60.58
2023-01-13T07:23:09.475Z,59.84
2023-01-13T07:24:09.483Z,59.70
2023-01-13T07:25:09.449Z,61.01
2023-01-13T07:26:09.454Z,60.29
2023-01-13T07:27:09.438Z,60.30
2023-01-13T07:28:09.412Z,60.10
2023-01-13T07:29:09.442Z,56.57
2023-01-13T07:30:09.396Z,58.66
2023-01-13T07:31:09.400Z,60.90
2023-01-13T07:32:09.380Z,62.56
2023-01-13T07:33:09.379Z,61.76
2023-01-13T07:34:09.402Z,59.06
2023-01-13T07:35:09.364Z,66.72
2023-01-13T07:36:09.340Z,60.31
2023-01-13T07:37:20.457Z,59.54
2023-01-13T07:38:09.307Z,59.04
2023-01-13T07:39:09.301Z,59.86
2023-01-13T07:40:09.310Z,58.76
2023-01-13T07:41:09.311Z,57.41
2023-01-13T07:42:09.283Z,61.06
2023-01-13T07:43:09.271Z,59.88
2023-01-13T07:44:09.247Z,60.76
2023-01-13T07:45:11.487Z,59.95
2023-01-13T07:46:09.290Z,59.96
2023-01-13T07:47:09.305Z,61.85
2023-01-13T07:48:09.233Z,64.40
2023-01-13T07:49:09.205Z,61.11
2023-01-13T07:50:09.193Z,60.15
2023-01-13T07:51:09.259Z,60.54
2023-01-13T07:52:09.227Z,60.98
2023-01-13T07:53:09.164Z,61.06
2023-01-13T07:54:09.223Z,61.16
2023-01-13T07:55:09.156Z,62.01
2023-01-13T07:56:09.144Z,67.32
2023-01-13T07:57:09.170Z,61.86
2023-01-13T07:58:09.148Z,59.88
2023-01-13T07:59:09.119Z,63.31
2023-01-13T08:00:10.484Z,64.28
2023-01-13T08:01:09.291Z,60.89
2023-01-13T08:02:09.236Z,61.54
2023-01-13T08:03:09.140Z,61.18
2023-01-13T08:04:09.057Z,66.75
2023-01-13T08:05:09.060Z,66.17
2023-01-13T08:06:09.097Z,60.96
2023-01-13T08:07:09.059Z,60.11
2023-01-13T08:08:09.041Z,68.55
2023-01-13T08:09:09.066Z,62.13
2023-01-13T08:10:09.106Z,60.93
2023-01-13T08:11:09.010Z,60.00
2023-01-13T08:12:09.119Z,61.24
2023-01-13T08:13:08.996Z,61.77
2023-01-13T08:14:08.997Z,62.89
2023-01-13T08:15:09.040Z,60.93
2023-01-13T08:16:08.950Z,62.17
2023-01-13T08:17:09.008Z,62.50
2023-01-13T08:18:08.914Z,61.20
2023-01-13T08:19:08.985Z,60.88
2023-01-13T08:20:08.943Z,59.86
2023-01-13T08:21:09.061Z,60.22
2023-01-13T08:22:08.903Z,60.91
2023-01-13T08:23:08.882Z,59.64
2023-01-13T08:24:08.893Z,60.32
2023-01-13T08:25:08.884Z,59.10
2023-01-13T08:26:08.962Z,66.75
2023-01-13T08:27:08.832Z,60.21
2023-01-13T08:28:09.945Z,60.85
2023-01-13T08:29:08.882Z,62.06
2023-01-13T08:30:08.813Z,65.53
2023-01-13T08:31:08.861Z,59.57
2023-01-13T08:32:08.778Z,60.62
2023-01-13T08:33:08.766Z,59.21
2023-01-13T08:34:08.849Z,59.18
2023-01-13T08:35:08.792Z,59.56
2023-01-13T08:36:08.971Z,60.26
2023-01-13T08:37:08.766Z,60.41
2023-01-13T08:38:08.807Z,64.28
2023-01-13T08:39:08.903Z,60.51
2023-01-13T08:40:08.776Z,61.95
2023-01-13T08:41:08.713Z,61.10
2023-01-13T08:42:08.683Z,58.28
2023-01-13T08:43:08.824Z,59.01
2023-01-13T08:44:08.667Z,67.47
2023-01-13T08:45:08.712Z,58.11
2023-01-13T08:46:08.759Z,60.72
2023-01-13T08:47:08.737Z,60.18
2023-01-13T08:48:08.637Z,59.62
2023-01-13T08:49:08.628Z,65.85
2023-01-13T08:50:09.012Z,60.61
2023-01-13T08:51:08.651Z,59.42
2023-01-13T08:52:08.592Z,58.29
2023-01-13T08:53:08.637Z,57.60
2023-01-13T08:54:08.665Z,63.73
2023-01-13T08:55:08.560Z,58.22
2023-01-13T08:56:08.566Z,56.49
2023-01-13T08:57:08.608Z,65.57
2023-01-13T08:58:15.677Z,61.43
2023-01-13T08:59:10.526Z,60.43
2023-01-13T09:00:08.520Z,60.39
2023-01-13T09:01:08.730Z,67.02
2023-01-13T09:02:08.577Z,62.66
2023-01-13T09:03:08.508Z,60.10
2023-01-13T09:04:08.547Z,59.48
2023-01-13T09:05:08.475Z,60.12
2023-01-13T09:06:08.658Z,59.11
2023-01-13T09:07:08.493Z,59.16
2023-01-13T09:08:08.437Z,59.50
2023-01-13T09:09:08.451Z,64.91
2023-01-13T09:10:08.420Z,60.76
2023-01-13T09:11:08.649Z,58.28
2023-01-13T09:12:08.583Z,60.36
2023-01-13T09:13:08.382Z,58.48
2023-01-13T09:14:08.551Z,58.49
2023-01-13T09:15:08.385Z,59.66
2023-01-13T09:16:08.440Z,67.48
2023-01-13T09:17:08.387Z,56.15
2023-01-13T09:18:08.338Z,61.16
2023-01-13T09:19:08.334Z,61.97
2023-01-13T09:20:08.408Z,58.19
2023-01-13T09:21:08.382Z,59.18
2023-01-13T09:22:08.362Z,58.26
2023-01-13T09:23:10.595Z,60.64
2023-01-13T09:24:09.283Z,57.99
2023-01-13T09:25:08.326Z,58.25
2023-01-13T09:26:08.307Z,59.30
2023-01-13T09:27:08.297Z,58.34
2023-01-13T09:28:08.709Z,60.36
2023-01-13T09:29:08.229Z,58.47
2023-01-13T09:30:08.241Z,57.22
2023-01-13T09:31:08.223Z,56.55
2023-01-13T09:32:08.206Z,60.21
2023-01-13T09:33:08.190Z,57.72
2023-01-13T09:34:08.194Z,68.71
2023-01-13T09:35:08.223Z,57.84
2023-01-13T09:36:08.160Z,57.66
2023-01-13T09:37:08.158Z,59.51
2023-01-13T09:38:08.191Z,58.68
2023-01-13T09:39:08.126Z,60.03
2023-01-13T09:40:08.132Z,66.74
2023-01-13T09:41:08.142Z,62.25
2023-01-13T09:42:08.154Z,58.27
2023-01-13T09:43:08.166Z,58.04
2023-01-13T09:44:08.101Z,57.87
2023-01-13T09:45:08.069Z,59.43
2023-01-13T09:46:08.117Z,60.70
2023-01-13T09:47:08.099Z,59.69
2023-01-13T09:48:08.048Z,60.24
2023-01-13T09:49:08.056Z,58.68
2023-01-13T09:50:08.048Z,60.65
2023-01-13T09:51:08.022Z,59.46
2023-01-13T09:52:08.071Z,58.79
2023-01-13T09:53:08.021Z,68.97
2023-01-13T09:54:09.063Z,57.97
2023-01-13T09:55:07.992Z,59.97
2023-01-13T09:56:07.973Z,60.86
2023-01-13T09:57:07.975Z,59.62
2023-01-13T09:58:08.791Z,59.02
2023-01-13T09:59:08.980Z,59.77
2023-01-13T10:00:07.953Z,63.97
2023-01-13T10:01:07.971Z,59.21
2023-01-13T10:02:07.930Z,58.51
2023-01-13T10:03:07.964Z,58.36
2023-01-13T10:04:09.185Z,59.68
2023-01-13T10:05:07.962Z,56.92
2023-01-13T10:06:07.877Z,58.15
2023-01-13T10:07:08.090Z,58.54
2023-01-13T10:08:07.858Z,58.66
2023-01-13T10:09:07.950Z,66.13
2023-01-13T10:10:09.376Z,57.61
2023-01-13T10:11:08.847Z,59.30
2023-01-13T10:12:07.868Z,59.35
2023-01-13T10:13:07.836Z,58.01
2023-01-13T10:14:07.870Z,61.19
2023-01-13T10:15:07.791Z,62.82
2023-01-13T10:16:07.887Z,57.75
2023-01-13T10:17:07.770Z,58.53
2023-01-13T10:18:07.782Z,57.68
2023-01-13T10:19:07.757Z,66.15
2023-01-13T10:20:07.752Z,57.91
2023-01-13T10:21:07.757Z,58.67
2023-01-13T10:22:09.330Z,57.32
2023-01-13T10:23:07.870Z,59.05
2023-01-13T10:24:07.716Z,58.84
2023-01-13T10:25:08.742Z,59.27
2023-01-13T10:26:07.755Z,59.50
2023-01-13T10:27:07.694Z,61.50
2023-01-13T10:28:07.661Z,65.26
2023-01-13T10:29:07.664Z,57.72
2023-01-13T10:30:07.685Z,63.96
2023-01-13T10:31:07.663Z,63.70
2023-01-13T10:32:07.785Z,61.56
2023-01-13T10:33:07.754Z,66.32
2023-01-13T10:34:07.607Z,58.67
2023-01-13T10:35:07.594Z,58.98
2023-01-13T10:36:07.606Z,59.03
2023-01-13T10:37:07.588Z,59.38
2023-01-13T10:38:07.576Z,60.17
2023-01-13T10:39:07.573Z,59.44
2023-01-13T10:40:07.567Z,59.11
2023-01-13T10:41:07.548Z,59.63
2023-01-13T10:42:07.565Z,60.56
2023-01-13T10:43:07.508Z,58.59
2023-01-13T10:44:09.643Z,58.59
2023-01-13T10:45:07.495Z,58.65
2023-01-13T10:46:07.575Z,57.95
2023-01-13T10:47:07.567Z,57.93
2023-01-13T10:48:07.464Z,59.30
2023-01-13T10:49:07.488Z,57.06
2023-01-13T10:50:09.467Z,60.57
2023-01-13T10:51:08.438Z,58.86
2023-01-13T10:52:07.467Z,63.88
2023-01-13T10:53:07.501Z,59.19
2023-01-13T10:54:07.411Z,58.12
2023-01-13T10:55:07.396Z,58.80
2023-01-13T10:56:07.420Z,58.28
2023-01-13T10:57:07.403Z,60.63
2023-01-13T10:58:07.375Z,56.16
2023-01-13T10:59:07.386Z,57.46
2023-01-13T11:00:07.333Z,58.69
2023-01-13T11:01:07.368Z,67.50
2023-01-13T11:02:23.841Z,59.49
2023-01-13T11:03:09.340Z,58.69
2023-01-13T11:04:07.328Z,60.62
2023-01-13T11:05:07.344Z,59.30
2023-01-13T11:06:07.293Z,62.08
2023-01-13T11:07:07.345Z,63.80
2023-01-13T11:08:07.274Z,59.24
2023-01-13T11:09:07.289Z,58.59
2023-01-13T11:10:07.232Z,61.22
2023-01-13T11:11:07.284Z,57.96
2023-01-13T11:12:07.214Z,62.24
2023-01-13T11:13:07.215Z,60.02
2023-01-13T11:14:09.201Z,61.22
2023-01-13T11:15:08.172Z,60.06
2023-01-13T11:16:07.213Z,60.31
2023-01-13T11:17:07.187Z,56.32
2023-01-13T11:18:07.185Z,58.51
2023-01-13T11:19:07.163Z,61.90
2023-01-13T11:20:07.185Z,61.58
2023-01-13T11:21:07.151Z,59.08
2023-01-13T11:22:07.137Z,58.45
2023-01-13T11:23:07.117Z,62.54
2023-01-13T11:24:07.108Z,64.25
2023-01-13T11:25:07.149Z,58.00
2023-01-13T11:26:07.132Z,58.78
2023-01-13T11:27:07.092Z,66.33
2023-01-13T11:28:07.104Z,58.03
2023-01-13T11:29:07.059Z,59.79
2023-01-13T11:30:07.092Z,63.38
2023-01-13T11:31:07.117Z,62.25
2023-01-13T11:32:07.012Z,59.22
2023-01-13T11:33:07.036Z,56.92
2023-01-13T11:34:07.045Z,56.37
2023-01-13T11:35:07.008Z,59.48
2023-01-13T11:36:07.022Z,58.92
2023-01-13T11:37:07.032Z,58.77
2023-01-13T11:38:06.971Z,58.12
2023-01-13T11:39:06.950Z,58.03
2023-01-13T11:40:07.011Z,65.56
2023-01-13T11:41:06.958Z,58.01
2023-01-13T11:42:06.928Z,61.29
2023-01-13T11:43:06.963Z,55.66
2023-01-13T11:44:06.909Z,59.26
2023-01-13T11:45:06.899Z,58.16
2023-01-13T11:46:07.023Z,59.83
2023-01-13T11:47:06.892Z,58.04
2023-01-13T11:48:06.892Z,58.00
2023-01-13T11:49:06.963Z,59.53
2023-01-13T11:50:06.852Z,63.80
2023-01-13T11:51:06.862Z,58.76
2023-01-13T11:52:06.931Z,58.92
2023-01-13T11:53:06.834Z,62.37
2023-01-13T11:54:06.818Z,59.84
2023-01-13T11:55:06.865Z,58.08
2023-01-13T11:56:06.808Z,59.35
2023-01-13T11:57:06.794Z,63.16
2023-01-13T11:58:06.835Z,59.92
2023-01-13T11:59:06.771Z,57.82
2023-01-13T12:00:06.733Z,57.19
2023-01-13T12:01:06.759Z,59.06
2023-01-13T12:02:06.821Z,62.11
2023-01-13T12:03:06.813Z,59.19
2023-01-13T12:04:06.716Z,67.69
2023-01-13T12:05:06.713Z,57.95
2023-01-13T12:06:06.713Z,60.49
2023-01-13T12:07:06.692Z,59.30
2023-01-13T12:08:06.693Z,58.60
2023-01-13T12:09:06.751Z,60.23
2023-01-13T12:10:10.971Z,60.16
2023-01-13T12:11:08.683Z,57.28
2023-01-13T12:12:07.679Z,57.24
2023-01-13T12:13:06.702Z,59.83
2023-01-13T12:14:06.670Z,59.70
2023-01-13T12:15:06.630Z,59.87
2023-01-13T12:16:06.677Z,58.23
2023-01-13T12:17:06.658Z,58.83
2023-01-13T12:18:06.616Z,58.33
2023-01-13T12:19:06.596Z,59.52
2023-01-13T12:20:06.540Z,60.71
2023-01-13T12:21:06.568Z,59.67
2023-01-13T12:22:06.534Z,62.19
2023-01-13T12:23:06.528Z,59.39
2023-01-13T12:24:07.526Z,57.34
2023-01-13T12:25:06.505Z,58.97
2023-01-13T12:26:06.553Z,59.04
2023-01-13T12:27:06.484Z,61.83
2023-01-13T12:28:06.471Z,63.90
2023-01-13T12:29:06.532Z,57.53
2023-01-13T12:30:06.456Z,58.06
2023-01-13T12:31:06.461Z,56.41
2023-01-13T12:32:06.472Z,59.82
2023-01-13T12:33:06.431Z,57.80
2023-01-13T12:34:06.429Z,56.72
2023-01-13T12:35:06.472Z,59.16
2023-01-13T12:36:06.417Z,58.29
2023-01-13T12:37:06.410Z,58.60
2023-01-13T12:38:06.423Z,61.02
2023-01-13T12:39:06.384Z,59.08
2023-01-13T12:40:06.396Z,57.34
2023-01-13T12:41:06.397Z,59.43
2023-01-13T12:42:06.390Z,58.28
2023-01-13T12:43:06.333Z,56.79
2023-01-13T12:44:06.402Z,60.24
2023-01-13T12:45:06.363Z,59.74
2023-01-13T12:46:06.335Z,64.30
2023-01-13T12:47:06.462Z,59.96
2023-01-13T12:48:06.314Z,56.53
2023-01-13T12:49:06.269Z,58.27
2023-01-13T12:50:06.258Z,57.28
2023-01-13T12:51:06.324Z,57.23
2023-01-13T12:52:06.275Z,57.58